Terminal Aerodrome Forecast
Issued by NWS Bismarck, ND

Home | Current Version | Previous Version | Text Only | Print | Product List | Glossary On
Versions: 1 2 3 4 5 6 7 8 9 10 11 12 13 14 15 16 17 18 19 20 21
000
FTUS43 KBIS 280527
TAFISN
TAF
KISN 280527Z 2806/2906 31005KT P6SM SKC
     FM281200 29010KT P6SM FEW090 FEW200
     FM281600 31018G28KT P6SM FEW070 FEW200
     FM281900 32024G34KT P6SM FEW080 FEW120
     FM290100 34019KT P6SM FEW070 SCT120
     FM290300 34010KT P6SM FEW060 FEW200=

USA.gov is the U.S. government's official web portal to all federal, state and local government web resources and services.